sensor_id;sensor_type;location;lat;lon;timestamp;P1;durP1;ratioP1;P2;durP2;ratioP2
54464;SDS011;40374;49.480;20.016;2023-05-07T00:00:12;28.30;;;16.17;;
54464;SDS011;40374;49.480;20.016;2023-05-07T00:03:02;24.48;;;15.60;;
54464;SDS011;40374;49.480;20.016;2023-05-07T00:05:30;24.42;;;15.70;;
54464;SDS011;40374;49.480;20.016;2023-05-07T00:07:58;27.80;;;16.48;;
54464;SDS011;40374;49.480;20.016;2023-05-07T00:10:25;26.25;;;16.83;;
54464;SDS011;40374;49.480;20.016;2023-05-07T00:12:53;26.83;;;18.00;;
54464;SDS011;40374;49.480;20.016;2023-05-07T00:15:21;25.65;;;17.35;;
54464;SDS011;40374;49.480;20.016;2023-05-07T00:17:48;29.02;;;17.73;;
54464;SDS011;40374;49.480;20.016;2023-05-07T00:20:16;25.98;;;17.73;;
54464;SDS011;40374;49.480;20.016;2023-05-07T00:22:44;29.55;;;18.52;;
54464;SDS011;40374;49.480;20.016;2023-05-07T00:25:11;29.00;;;17.80;;
54464;SDS011;40374;49.480;20.016;2023-05-07T00:27:39;33.50;;;19.50;;
54464;SDS011;40374;49.480;20.016;2023-05-07T00:30:06;26.20;;;17.52;;
54464;SDS011;40374;49.480;20.016;2023-05-07T00:32:35;25.90;;;17.33;;
54464;SDS011;40374;49.480;20.016;2023-05-07T00:35:04;29.17;;;18.92;;
54464;SDS011;40374;49.480;20.016;2023-05-07T00:37:32;35.00;;;20.08;;
54464;SDS011;40374;49.480;20.016;2023-05-07T00:40:00;29.95;;;17.67;;
54464;SDS011;40374;49.480;20.016;2023-05-07T00:42:27;32.08;;;20.20;;
54464;SDS011;40374;49.480;20.016;2023-05-07T00:44:55;34.55;;;22.23;;
54464;SDS011;40374;49.480;20.016;2023-05-07T00:47:23;36.50;;;21.40;;
54464;SDS011;40374;49.480;20.016;2023-05-07T00:49:54;37.63;;;22.38;;
54464;SDS011;40374;49.480;20.016;2023-05-07T00:52:22;40.00;;;24.67;;
54464;SDS011;40374;49.480;20.016;2023-05-07T00:54:52;40.90;;;24.65;;
54464;SDS011;40374;49.480;20.016;2023-05-07T00:57:21;43.83;;;24.92;;
54464;SDS011;40374;49.480;20.016;2023-05-07T00:59:50;41.25;;;25.23;;
54464;SDS011;40374;49.480;20.016;2023-05-07T01:02:18;37.33;;;23.85;;
54464;SDS011;40374;49.480;20.016;2023-05-07T01:04:46;41.83;;;25.55;;
54464;SDS011;40374;49.480;20.016;2023-05-07T01:07:14;39.00;;;24.15;;
54464;SDS011;40374;49.480;20.016;2023-05-07T01:09:42;37.30;;;23.63;;
54464;SDS011;40374;49.480;20.016;2023-05-07T01:12:10;38.85;;;24.50;;
54464;SDS011;40374;49.480;20.016;2023-05-07T01:14:37;36.78;;;25.05;;
54464;SDS011;40374;49.480;20.016;2023-05-07T01:17:05;38.80;;;23.70;;
54464;SDS011;40374;49.480;20.016;2023-05-07T01:19:34;35.67;;;23.40;;
54464;SDS011;40374;49.480;20.016;2023-05-07T01:22:03;50.50;;;30.73;;
54464;SDS011;40374;49.480;20.016;2023-05-07T01:24:43;52.60;;;31.58;;
54464;SDS011;40374;49.480;20.016;2023-05-07T01:27:12;50.78;;;30.40;;
54464;SDS011;40374;49.480;20.016;2023-05-07T01:29:39;52.67;;;28.88;;
54464;SDS011;40374;49.480;20.016;2023-05-07T01:32:07;46.45;;;29.58;;
54464;SDS011;40374;49.480;20.016;2023-05-07T01:34:35;48.72;;;30.30;;
54464;SDS011;40374;49.480;20.016;2023-05-07T01:37:04;54.75;;;32.22;;
54464;SDS011;40374;49.480;20.016;2023-05-07T01:39:32;52.35;;;32.05;;
54464;SDS011;40374;49.480;20.016;2023-05-07T01:42:01;47.15;;;30.55;;
54464;SDS011;40374;49.480;20.016;2023-05-07T01:44:28;52.03;;;31.67;;
54464;SDS011;40374;49.480;20.016;2023-05-07T01:46:57;56.35;;;30.85;;
54464;SDS011;40374;49.480;20.016;2023-05-07T01:49:25;52.30;;;30.42;;
54464;SDS011;40374;49.480;20.016;2023-05-07T01:51:53;55.08;;;31.83;;
54464;SDS011;40374;49.480;20.016;2023-05-07T01:54:26;53.35;;;33.40;;
54464;SDS011;40374;49.480;20.016;2023-05-07T01:59:27;55.65;;;30.90;;
54464;SDS011;40374;49.480;20.016;2023-05-07T02:01:54;53.63;;;31.95;;
54464;SDS011;40374;49.480;20.016;2023-05-07T02:04:22;52.83;;;32.63;;
54464;SDS011;40374;49.480;20.016;2023-05-07T02:06:50;58.67;;;34.85;;
54464;SDS011;40374;49.480;20.016;2023-05-07T02:09:19;54.03;;;31.73;;
54464;SDS011;40374;49.480;20.016;2023-05-07T02:11:48;54.97;;;32.45;;
54464;SDS011;40374;49.480;20.016;2023-05-07T02:14:17;54.22;;;31.35;;
54464;SDS011;40374;49.480;20.016;2023-05-07T02:16:47;56.25;;;31.35;;
54464;SDS011;40374;49.480;20.016;2023-05-07T02:19:15;55.20;;;31.00;;
54464;SDS011;40374;49.480;20.016;2023-05-07T02:21:43;58.55;;;31.48;;
54464;SDS011;40374;49.480;20.016;2023-05-07T02:24:11;52.03;;;30.70;;
54464;SDS011;40374;49.480;20.016;2023-05-07T02:26:39;51.97;;;30.88;;
54464;SDS011;40374;49.480;20.016;2023-05-07T02:29:07;54.80;;;32.22;;
54464;SDS011;40374;49.480;20.016;2023-05-07T02:31:37;57.25;;;32.00;;
54464;SDS011;40374;49.480;20.016;2023-05-07T02:34:04;57.00;;;32.70;;
54464;SDS011;40374;49.480;20.016;2023-05-07T02:36:32;57.42;;;30.13;;
54464;SDS011;40374;49.480;20.016;2023-05-07T02:39:07;52.50;;;30.33;;
54464;SDS011;40374;49.480;20.016;2023-05-07T02:41:35;53.33;;;30.75;;
54464;SDS011;40374;49.480;20.016;2023-05-07T02:44:02;50.00;;;29.38;;
54464;SDS011;40374;49.480;20.016;2023-05-07T02:46:30;52.58;;;30.50;;
54464;SDS011;40374;49.480;20.016;2023-05-07T02:49:04;55.17;;;30.88;;
54464;SDS011;40374;49.480;20.016;2023-05-07T02:51:33;54.10;;;30.20;;
54464;SDS011;40374;49.480;20.016;2023-05-07T02:54:03;56.15;;;30.02;;
54464;SDS011;40374;49.480;20.016;2023-05-07T02:56:32;55.55;;;30.75;;
54464;SDS011;40374;49.480;20.016;2023-05-07T02:59:02;56.70;;;29.70;;
54464;SDS011;40374;49.480;20.016;2023-05-07T03:01:33;49.05;;;28.27;;
54464;SDS011;40374;49.480;20.016;2023-05-07T03:04:03;49.42;;;28.77;;
54464;SDS011;40374;49.480;20.016;2023-05-07T03:06:32;53.15;;;30.20;;
54464;SDS011;40374;49.480;20.016;2023-05-07T03:08:59;49.70;;;29.02;;
54464;SDS011;40374;49.480;20.016;2023-05-07T03:11:26;51.55;;;29.17;;
54464;SDS011;40374;49.480;20.016;2023-05-07T03:13:54;49.88;;;30.35;;
54464;SDS011;40374;49.480;20.016;2023-05-07T03:16:22;50.50;;;29.20;;
54464;SDS011;40374;49.480;20.016;2023-05-07T03:18:49;51.15;;;30.13;;
54464;SDS011;40374;49.480;20.016;2023-05-07T03:21:17;52.40;;;29.95;;
54464;SDS011;40374;49.480;20.016;2023-05-07T03:23:44;49.58;;;29.13;;
54464;SDS011;40374;49.480;20.016;2023-05-07T03:26:12;48.67;;;28.92;;
54464;SDS011;40374;49.480;20.016;2023-05-07T03:28:40;51.78;;;28.05;;
54464;SDS011;40374;49.480;20.016;2023-05-07T03:31:11;54.70;;;28.52;;
54464;SDS011;40374;49.480;20.016;2023-05-07T03:33:49;46.47;;;28.02;;
54464;SDS011;40374;49.480;20.016;2023-05-07T03:36:23;50.65;;;29.80;;
54464;SDS011;40374;49.480;20.016;2023-05-07T03:38:54;51.00;;;28.02;;
54464;SDS011;40374;49.480;20.016;2023-05-07T03:41:25;53.75;;;28.27;;
54464;SDS011;40374;49.480;20.016;2023-05-07T03:43:53;47.47;;;27.90;;
54464;SDS011;40374;49.480;20.016;2023-05-07T03:46:20;47.88;;;27.02;;
54464;SDS011;40374;49.480;20.016;2023-05-07T03:48:48;49.05;;;28.88;;
54464;SDS011;40374;49.480;20.016;2023-05-07T03:51:16;48.65;;;27.70;;
54464;SDS011;40374;49.480;20.016;2023-05-07T03:53:44;52.97;;;29.88;;
54464;SDS011;40374;49.480;20.016;2023-05-07T03:56:12;52.30;;;28.92;;
54464;SDS011;40374;49.480;20.016;2023-05-07T03:58:40;48.38;;;27.38;;
54464;SDS011;40374;49.480;20.016;2023-05-07T04:01:10;49.15;;;28.75;;
54464;SDS011;40374;49.480;20.016;2023-05-07T04:03:38;45.60;;;26.33;;
54464;SDS011;40374;49.480;20.016;2023-05-07T04:06:06;49.67;;;26.98;;
54464;SDS011;40374;49.480;20.016;2023-05-07T04:08:34;45.42;;;28.10;;
54464;SDS011;40374;49.480;20.016;2023-05-07T04:11:03;56.75;;;28.77;;
54464;SDS011;40374;49.480;20.016;2023-05-07T04:13:34;53.45;;;29.50;;
54464;SDS011;40374;49.480;20.016;2023-05-07T04:16:04;45.10;;;26.48;;
54464;SDS011;40374;49.480;20.016;2023-05-07T04:18:37;48.08;;;28.08;;
54464;SDS011;40374;49.480;20.016;2023-05-07T04:21:05;48.95;;;25.42;;
54464;SDS011;40374;49.480;20.016;2023-05-07T04:23:35;48.05;;;26.02;;
54464;SDS011;40374;49.480;20.016;2023-05-07T04:26:07;51.28;;;26.77;;
54464;SDS011;40374;49.480;20.016;2023-05-07T04:28:39;50.92;;;25.63;;
54464;SDS011;40374;49.480;20.016;2023-05-07T04:31:07;45.92;;;28.25;;
54464;SDS011;40374;49.480;20.016;2023-05-07T04:33:36;49.47;;;27.77;;
54464;SDS011;40374;49.480;20.016;2023-05-07T04:36:06;44.17;;;26.00;;
54464;SDS011;40374;49.480;20.016;2023-05-07T04:38:41;45.33;;;26.35;;
54464;SDS011;40374;49.480;20.016;2023-05-07T04:41:09;43.70;;;27.30;;
54464;SDS011;40374;49.480;20.016;2023-05-07T04:43:39;40.80;;;25.58;;
54464;SDS011;40374;49.480;20.016;2023-05-07T04:46:08;38.85;;;23.85;;
54464;SDS011;40374;49.480;20.016;2023-05-07T04:48:35;46.47;;;26.88;;
54464;SDS011;40374;49.480;20.016;2023-05-07T04:51:05;40.35;;;23.65;;
54464;SDS011;40374;49.480;20.016;2023-05-07T04:53:33;37.88;;;23.38;;
54464;SDS011;40374;49.480;20.016;2023-05-07T04:56:01;33.30;;;20.58;;
54464;SDS011;40374;49.480;20.016;2023-05-07T04:58:40;33.60;;;21.55;;
54464;SDS011;40374;49.480;20.016;2023-05-07T05:01:09;32.67;;;19.42;;
54464;SDS011;40374;49.480;20.016;2023-05-07T05:03:37;29.42;;;18.38;;
54464;SDS011;40374;49.480;20.016;2023-05-07T05:06:07;28.88;;;17.45;;
54464;SDS011;40374;49.480;20.016;2023-05-07T05:08:35;32.38;;;18.63;;
54464;SDS011;40374;49.480;20.016;2023-05-07T05:11:04;28.00;;;18.70;;
54464;SDS011;40374;49.480;20.016;2023-05-07T05:13:35;32.05;;;17.90;;
54464;SDS011;40374;49.480;20.016;2023-05-07T05:16:09;26.08;;;18.15;;
54464;SDS011;40374;49.480;20.016;2023-05-07T05:18:38;24.85;;;16.60;;
54464;SDS011;40374;49.480;20.016;2023-05-07T05:21:07;26.40;;;16.77;;
54464;SDS011;40374;49.480;20.016;2023-05-07T05:23:35;28.80;;;17.27;;
54464;SDS011;40374;49.480;20.016;2023-05-07T05:26:03;25.42;;;16.20;;
54464;SDS011;40374;49.480;20.016;2023-05-07T05:28:32;25.67;;;15.20;;
54464;SDS011;40374;49.480;20.016;2023-05-07T05:31:00;28.83;;;16.35;;
54464;SDS011;40374;49.480;20.016;2023-05-07T05:33:31;20.27;;;13.95;;
54464;SDS011;40374;49.480;20.016;2023-05-07T05:36:03;24.15;;;16.25;;
54464;SDS011;40374;49.480;20.016;2023-05-07T05:38:31;22.25;;;15.05;;
54464;SDS011;40374;49.480;20.016;2023-05-07T05:40:59;26.25;;;15.30;;
54464;SDS011;40374;49.480;20.016;2023-05-07T05:43:28;23.52;;;15.20;;
54464;SDS011;40374;49.480;20.016;2023-05-07T05:45:56;21.40;;;14.15;;
54464;SDS011;40374;49.480;20.016;2023-05-07T05:48:24;20.10;;;13.18;;
54464;SDS011;40374;49.480;20.016;2023-05-07T05:50:51;21.30;;;14.77;;
54464;SDS011;40374;49.480;20.016;2023-05-07T05:53:19;25.92;;;14.98;;
54464;SDS011;40374;49.480;20.016;2023-05-07T05:55:47;25.85;;;15.73;;
54464;SDS011;40374;49.480;20.016;2023-05-07T05:58:15;18.80;;;13.50;;
54464;SDS011;40374;49.480;20.016;2023-05-07T06:25:34;22.00;;;15.48;;
54464;SDS011;40374;49.480;20.016;2023-05-07T06:28:02;18.98;;;12.90;;
54464;SDS011;40374;49.480;20.016;2023-05-07T06:30:31;20.38;;;13.45;;
54464;SDS011;40374;49.480;20.016;2023-05-07T06:32:59;17.48;;;12.40;;
54464;SDS011;40374;49.480;20.016;2023-05-07T06:35:26;18.05;;;12.00;;
54464;SDS011;40374;49.480;20.016;2023-05-07T06:37:54;26.42;;;14.48;;
54464;SDS011;40374;49.480;20.016;2023-05-07T06:40:24;19.77;;;13.48;;
54464;SDS011;40374;49.480;20.016;2023-05-07T06:42:52;23.77;;;15.63;;
54464;SDS011;40374;49.480;20.016;2023-05-07T06:45:33;21.55;;;14.07;;
54464;SDS011;40374;49.480;20.016;2023-05-07T06:48:01;21.75;;;13.82;;
54464;SDS011;40374;49.480;20.016;2023-05-07T06:50:34;17.50;;;12.15;;
54464;SDS011;40374;49.480;20.016;2023-05-07T06:53:01;21.65;;;14.10;;
54464;SDS011;40374;49.480;20.016;2023-05-07T06:55:28;27.77;;;14.15;;
54464;SDS011;40374;49.480;20.016;2023-05-07T06:57:56;20.15;;;13.48;;
54464;SDS011;40374;49.480;20.016;2023-05-07T07:00:28;21.40;;;12.95;;
54464;SDS011;40374;49.480;20.016;2023-05-07T07:02:56;20.38;;;13.02;;
54464;SDS011;40374;49.480;20.016;2023-05-07T07:05:26;20.40;;;9.75;;
54464;SDS011;40374;49.480;20.016;2023-05-07T07:07:54;22.55;;;11.05;;
54464;SDS011;40374;49.480;20.016;2023-05-07T07:10:22;19.83;;;10.55;;
54464;SDS011;40374;49.480;20.016;2023-05-07T07:12:51;18.45;;;11.45;;
54464;SDS011;40374;49.480;20.016;2023-05-07T07:15:20;16.92;;;10.60;;
54464;SDS011;40374;49.480;20.016;2023-05-07T07:17:49;20.42;;;11.50;;
54464;SDS011;40374;49.480;20.016;2023-05-07T07:20:17;15.65;;;11.02;;
54464;SDS011;40374;49.480;20.016;2023-05-07T07:22:46;16.40;;;10.80;;
54464;SDS011;40374;49.480;20.016;2023-05-07T07:25:15;13.65;;;9.00;;
54464;SDS011;40374;49.480;20.016;2023-05-07T07:27:43;12.57;;;8.88;;
54464;SDS011;40374;49.480;20.016;2023-05-07T07:30:11;14.30;;;9.02;;
54464;SDS011;40374;49.480;20.016;2023-05-07T07:32:41;14.85;;;8.93;;
54464;SDS011;40374;49.480;20.016;2023-05-07T07:35:09;16.77;;;10.38;;
54464;SDS011;40374;49.480;20.016;2023-05-07T07:37:38;17.58;;;9.52;;
54464;SDS011;40374;49.480;20.016;2023-05-07T07:40:06;13.25;;;9.65;;
54464;SDS011;40374;49.480;20.016;2023-05-07T07:42:40;14.98;;;10.45;;
54464;SDS011;40374;49.480;20.016;2023-05-07T07:45:08;13.65;;;10.10;;
54464;SDS011;40374;49.480;20.016;2023-05-07T07:47:40;17.60;;;10.43;;
54464;SDS011;40374;49.480;20.016;2023-05-07T07:50:07;13.07;;;9.73;;
54464;SDS011;40374;49.480;20.016;2023-05-07T07:52:36;13.95;;;9.30;;
54464;SDS011;40374;49.480;20.016;2023-05-07T07:55:04;14.57;;;9.13;;
54464;SDS011;40374;49.480;20.016;2023-05-07T07:57:33;13.18;;;8.63;;
54464;SDS011;40374;49.480;20.016;2023-05-07T08:00:19;14.23;;;9.70;;
54464;SDS011;40374;49.480;20.016;2023-05-07T08:03:02;11.57;;;7.28;;
54464;SDS011;40374;49.480;20.016;2023-05-07T08:05:34;13.82;;;9.00;;
54464;SDS011;40374;49.480;20.016;2023-05-07T08:08:04;11.38;;;8.77;;
54464;SDS011;40374;49.480;20.016;2023-05-07T08:10:34;13.35;;;8.23;;
54464;SDS011;40374;49.480;20.016;2023-05-07T08:13:11;11.70;;;7.80;;
54464;SDS011;40374;49.480;20.016;2023-05-07T08:15:40;11.63;;;7.68;;
54464;SDS011;40374;49.480;20.016;2023-05-07T08:18:09;14.50;;;7.90;;
54464;SDS011;40374;49.480;20.016;2023-05-07T08:20:42;13.13;;;8.25;;
54464;SDS011;40374;49.480;20.016;2023-05-07T08:23:23;10.95;;;8.10;;
54464;SDS011;40374;49.480;20.016;2023-05-07T08:26:00;14.95;;;7.97;;
54464;SDS011;40374;49.480;20.016;2023-05-07T08:28:38;13.25;;;8.43;;
54464;SDS011;40374;49.480;20.016;2023-05-07T08:31:10;12.00;;;7.70;;
54464;SDS011;40374;49.480;20.016;2023-05-07T08:33:40;12.15;;;7.97;;
54464;SDS011;40374;49.480;20.016;2023-05-07T08:36:07;10.73;;;7.13;;
54464;SDS011;40374;49.480;20.016;2023-05-07T08:38:35;10.18;;;6.63;;
54464;SDS011;40374;49.480;20.016;2023-05-07T08:41:06;8.77;;;5.00;;
54464;SDS011;40374;49.480;20.016;2023-05-07T08:43:39;6.35;;;4.65;;
54464;SDS011;40374;49.480;20.016;2023-05-07T08:46:21;8.77;;;4.57;;
54464;SDS011;40374;49.480;20.016;2023-05-07T08:48:56;7.10;;;4.65;;
54464;SDS011;40374;49.480;20.016;2023-05-07T08:51:27;6.30;;;3.92;;
54464;SDS011;40374;49.480;20.016;2023-05-07T08:53:56;5.22;;;3.92;;
54464;SDS011;40374;49.480;20.016;2023-05-07T08:56:29;4.35;;;3.55;;
54464;SDS011;40374;49.480;20.016;2023-05-07T08:58:57;4.57;;;3.47;;
54464;SDS011;40374;49.480;20.016;2023-05-07T09:01:27;4.82;;;3.55;;
54464;SDS011;40374;49.480;20.016;2023-05-07T09:03:57;4.38;;;3.10;;
54464;SDS011;40374;49.480;20.016;2023-05-07T09:06:27;3.95;;;2.90;;
54464;SDS011;40374;49.480;20.016;2023-05-07T09:08:54;4.50;;;2.90;;
54464;SDS011;40374;49.480;20.016;2023-05-07T09:11:26;2.55;;;2.22;;
54464;SDS011;40374;49.480;20.016;2023-05-07T09:13:58;3.88;;;2.70;;
54464;SDS011;40374;49.480;20.016;2023-05-07T09:16:33;3.55;;;2.55;;
54464;SDS011;40374;49.480;20.016;2023-05-07T09:19:01;4.95;;;2.63;;
54464;SDS011;40374;49.480;20.016;2023-05-07T09:21:29;3.30;;;2.85;;
54464;SDS011;40374;49.480;20.016;2023-05-07T09:23:59;4.47;;;2.53;;
54464;SDS011;40374;49.480;20.016;2023-05-07T09:26:33;3.35;;;2.38;;
54464;SDS011;40374;49.480;20.016;2023-05-07T09:29:03;4.13;;;3.03;;
54464;SDS011;40374;49.480;20.016;2023-05-07T09:31:31;3.55;;;2.80;;
54464;SDS011;40374;49.480;20.016;2023-05-07T09:33:59;3.53;;;2.70;;
54464;SDS011;40374;49.480;20.016;2023-05-07T09:36:31;2.97;;;2.50;;
54464;SDS011;40374;49.480;20.016;2023-05-07T09:39:00;2.22;;;1.70;;
54464;SDS011;40374;49.480;20.016;2023-05-07T09:41:29;2.42;;;1.52;;
54464;SDS011;40374;49.480;20.016;2023-05-07T09:44:11;1.77;;;1.65;;
54464;SDS011;40374;49.480;20.016;2023-05-07T09:46:43;1.80;;;1.70;;
54464;SDS011;40374;49.480;20.016;2023-05-07T09:49:22;2.08;;;1.80;;
54464;SDS011;40374;49.480;20.016;2023-05-07T09:51:56;1.60;;;1.50;;
54464;SDS011;40374;49.480;20.016;2023-05-07T09:54:28;3.05;;;1.65;;
54464;SDS011;40374;49.480;20.016;2023-05-07T09:56:57;2.03;;;1.83;;
54464;SDS011;40374;49.480;20.016;2023-05-07T09:59:29;1.58;;;1.48;;
54464;SDS011;40374;49.480;20.016;2023-05-07T10:02:01;1.35;;;1.17;;
54464;SDS011;40374;49.480;20.016;2023-05-07T10:04:35;1.55;;;1.30;;
54464;SDS011;40374;49.480;20.016;2023-05-07T10:07:04;1.50;;;1.30;;
54464;SDS011;40374;49.480;20.016;2023-05-07T10:09:34;1.40;;;1.30;;
54464;SDS011;40374;49.480;20.016;2023-05-07T10:12:09;3.40;;;1.10;;
54464;SDS011;40374;49.480;20.016;2023-05-07T10:14:37;3.00;;;1.42;;
54464;SDS011;40374;49.480;20.016;2023-05-07T10:17:06;1.00;;;0.90;;
54464;SDS011;40374;49.480;20.016;2023-05-07T10:19:36;1.02;;;1.00;;
54464;SDS011;40374;49.480;20.016;2023-05-07T10:22:09;0.90;;;0.70;;
54464;SDS011;40374;49.480;20.016;2023-05-07T10:24:42;1.58;;;0.80;;
54464;SDS011;40374;49.480;20.016;2023-05-07T10:27:16;1.23;;;0.70;;
54464;SDS011;40374;49.480;20.016;2023-05-07T10:35:16;0.88;;;0.40;;
54464;SDS011;40374;49.480;20.016;2023-05-07T10:37:48;0.85;;;0.82;;
54464;SDS011;40374;49.480;20.016;2023-05-07T10:40:17;0.75;;;0.65;;
54464;SDS011;40374;49.480;20.016;2023-05-07T10:43:00;1.38;;;0.60;;
54464;SDS011;40374;49.480;20.016;2023-05-07T10:45:35;1.33;;;0.80;;
54464;SDS011;40374;49.480;20.016;2023-05-07T10:56:53;34.03;;;16.30;;
54464;SDS011;40374;49.480;20.016;2023-05-07T10:59:32;25.17;;;10.43;;
54464;SDS011;40374;49.480;20.016;2023-05-07T11:02:18;1.92;;;1.73;;
54464;SDS011;40374;49.480;20.016;2023-05-07T11:08:09;11.05;;;5.50;;
54464;SDS011;40374;49.480;20.016;2023-05-07T11:10:59;10.70;;;5.72;;
54464;SDS011;40374;49.480;20.016;2023-05-07T11:13:57;4.25;;;2.42;;
54464;SDS011;40374;49.480;20.016;2023-05-07T11:16:36;4.10;;;2.42;;
54464;SDS011;40374;49.480;20.016;2023-05-07T11:19:16;8.48;;;4.53;;
54464;SDS011;40374;49.480;20.016;2023-05-07T11:21:48;24.00;;;11.80;;
54464;SDS011;40374;49.480;20.016;2023-05-07T11:24:38;2.10;;;1.85;;
54464;SDS011;40374;49.480;20.016;2023-05-07T11:27:08;11.77;;;4.95;;
54464;SDS011;40374;49.480;20.016;2023-05-07T11:29:36;2.47;;;1.70;;
54464;SDS011;40374;49.480;20.016;2023-05-07T11:32:12;1.80;;;1.20;;
54464;SDS011;40374;49.480;20.016;2023-05-07T11:34:51;1.90;;;0.90;;
54464;SDS011;40374;49.480;20.016;2023-05-07T11:37:19;1.48;;;1.35;;
54464;SDS011;40374;49.480;20.016;2023-05-07T11:40:02;1.80;;;1.40;;
54464;SDS011;40374;49.480;20.016;2023-05-07T11:42:35;1.83;;;1.17;;
54464;SDS011;40374;49.480;20.016;2023-05-07T11:45:05;1.10;;;1.00;;
54464;SDS011;40374;49.480;20.016;2023-05-07T11:47:34;2.75;;;1.20;;
54464;SDS011;40374;49.480;20.016;2023-05-07T11:50:03;1.20;;;1.10;;
54464;SDS011;40374;49.480;20.016;2023-05-07T11:52:34;1.80;;;1.20;;
54464;SDS011;40374;49.480;20.016;2023-05-07T11:55:02;1.30;;;1.20;;
54464;SDS011;40374;49.480;20.016;2023-05-07T11:57:32;1.48;;;0.90;;
54464;SDS011;40374;49.480;20.016;2023-05-07T12:00:01;1.30;;;1.00;;
54464;SDS011;40374;49.480;20.016;2023-05-07T12:02:40;3.58;;;1.05;;
54464;SDS011;40374;49.480;20.016;2023-05-07T12:05:09;1.42;;;1.27;;
54464;SDS011;40374;49.480;20.016;2023-05-07T12:07:37;1.23;;;1.08;;
54464;SDS011;40374;49.480;20.016;2023-05-07T12:10:05;1.30;;;1.20;;
54464;SDS011;40374;49.480;20.016;2023-05-07T12:12:45;1.25;;;1.15;;
54464;SDS011;40374;49.480;20.016;2023-05-07T12:15:16;2.45;;;1.70;;
54464;SDS011;40374;49.480;20.016;2023-05-07T12:17:44;13.35;;;5.05;;
54464;SDS011;40374;49.480;20.016;2023-05-07T12:20:12;1.70;;;1.40;;
54464;SDS011;40374;49.480;20.016;2023-05-07T12:22:40;1.67;;;1.15;;
54464;SDS011;40374;49.480;20.016;2023-05-07T12:25:08;1.13;;;1.02;;
54464;SDS011;40374;49.480;20.016;2023-05-07T12:27:37;1.15;;;1.00;;
54464;SDS011;40374;49.480;20.016;2023-05-07T12:30:08;1.25;;;0.90;;
54464;SDS011;40374;49.480;20.016;2023-05-07T12:32:37;2.58;;;1.23;;
54464;SDS011;40374;49.480;20.016;2023-05-07T12:35:05;1.00;;;0.90;;
54464;SDS011;40374;49.480;20.016;2023-05-07T12:37:34;1.65;;;1.00;;
54464;SDS011;40374;49.480;20.016;2023-05-07T12:40:04;1.23;;;0.90;;
54464;SDS011;40374;49.480;20.016;2023-05-07T12:42:37;1.33;;;1.20;;
54464;SDS011;40374;49.480;20.016;2023-05-07T12:45:12;1.25;;;1.15;;
54464;SDS011;40374;49.480;20.016;2023-05-07T12:47:44;1.42;;;1.13;;
54464;SDS011;40374;49.480;20.016;2023-05-07T12:50:13;1.40;;;1.30;;
54464;SDS011;40374;49.480;20.016;2023-05-07T12:52:42;1.58;;;1.23;;
54464;SDS011;40374;49.480;20.016;2023-05-07T12:55:14;1.23;;;1.13;;
54464;SDS011;40374;49.480;20.016;2023-05-07T12:57:45;8.32;;;2.35;;
54464;SDS011;40374;49.480;20.016;2023-05-07T13:00:14;16.65;;;5.28;;
54464;SDS011;40374;49.480;20.016;2023-05-07T13:02:43;2.78;;;1.80;;
54464;SDS011;40374;49.480;20.016;2023-05-07T13:05:14;1.60;;;1.50;;
54464;SDS011;40374;49.480;20.016;2023-05-07T13:07:51;2.67;;;1.88;;
54464;SDS011;40374;49.480;20.016;2023-05-07T13:10:21;2.42;;;1.52;;
54464;SDS011;40374;49.480;20.016;2023-05-07T13:12:51;1.75;;;1.65;;
54464;SDS011;40374;49.480;20.016;2023-05-07T13:15:19;2.92;;;2.10;;
54464;SDS011;40374;49.480;20.016;2023-05-07T13:17:48;2.75;;;2.00;;
54464;SDS011;40374;49.480;20.016;2023-05-07T13:20:17;3.53;;;2.30;;
54464;SDS011;40374;49.480;20.016;2023-05-07T13:22:44;2.28;;;2.08;;
54464;SDS011;40374;49.480;20.016;2023-05-07T13:25:12;3.67;;;2.70;;
54464;SDS011;40374;49.480;20.016;2023-05-07T13:27:40;3.38;;;2.78;;
54464;SDS011;40374;49.480;20.016;2023-05-07T13:30:08;2.72;;;2.10;;
54464;SDS011;40374;49.480;20.016;2023-05-07T13:32:35;3.53;;;2.40;;
54464;SDS011;40374;49.480;20.016;2023-05-07T13:35:03;6.85;;;2.65;;
54464;SDS011;40374;49.480;20.016;2023-05-07T13:37:31;3.65;;;3.08;;
54464;SDS011;40374;49.480;20.016;2023-05-07T13:39:58;2.58;;;2.30;;
54464;SDS011;40374;49.480;20.016;2023-05-07T13:42:26;6.45;;;3.22;;
54464;SDS011;40374;49.480;20.016;2023-05-07T13:44:53;9.73;;;4.70;;
54464;SDS011;40374;49.480;20.016;2023-05-07T13:47:21;6.93;;;3.40;;
54464;SDS011;40374;49.480;20.016;2023-05-07T13:49:50;6.32;;;3.95;;
54464;SDS011;40374;49.480;20.016;2023-05-07T13:52:18;5.93;;;2.72;;
54464;SDS011;40374;49.480;20.016;2023-05-07T13:54:47;5.43;;;3.13;;
54464;SDS011;40374;49.480;20.016;2023-05-07T13:57:14;5.70;;;2.38;;
54464;SDS011;40374;49.480;20.016;2023-05-07T13:59:42;4.50;;;2.78;;
54464;SDS011;40374;49.480;20.016;2023-05-07T14:02:09;4.18;;;2.58;;
54464;SDS011;40374;49.480;20.016;2023-05-07T14:04:37;3.88;;;2.65;;
54464;SDS011;40374;49.480;20.016;2023-05-07T14:07:04;5.20;;;2.85;;
54464;SDS011;40374;49.480;20.016;2023-05-07T14:09:32;11.25;;;5.50;;
54464;SDS011;40374;49.480;20.016;2023-05-07T14:12:00;14.55;;;7.50;;
54464;SDS011;40374;49.480;20.016;2023-05-07T14:14:28;8.95;;;5.15;;
54464;SDS011;40374;49.480;20.016;2023-05-07T14:16:56;7.75;;;4.72;;
54464;SDS011;40374;49.480;20.016;2023-05-07T14:19:24;7.43;;;3.67;;
54464;SDS011;40374;49.480;20.016;2023-05-07T14:21:51;5.28;;;3.30;;
54464;SDS011;40374;49.480;20.016;2023-05-07T14:24:19;12.10;;;5.60;;
54464;SDS011;40374;49.480;20.016;2023-05-07T14:27:03;5.40;;;3.30;;
54464;SDS011;40374;49.480;20.016;2023-05-07T14:29:31;4.28;;;2.75;;
54464;SDS011;40374;49.480;20.016;2023-05-07T14:31:58;7.35;;;3.80;;
54464;SDS011;40374;49.480;20.016;2023-05-07T14:34:26;6.10;;;3.50;;
54464;SDS011;40374;49.480;20.016;2023-05-07T14:36:55;6.82;;;4.15;;
54464;SDS011;40374;49.480;20.016;2023-05-07T14:39:24;4.43;;;3.20;;
54464;SDS011;40374;49.480;20.016;2023-05-07T14:41:53;11.65;;;4.53;;
54464;SDS011;40374;49.480;20.016;2023-05-07T14:44:23;5.55;;;3.75;;
54464;SDS011;40374;49.480;20.016;2023-05-07T14:46:52;5.50;;;3.80;;
54464;SDS011;40374;49.480;20.016;2023-05-07T14:49:19;6.00;;;3.92;;
54464;SDS011;40374;49.480;20.016;2023-05-07T14:51:47;5.32;;;3.88;;
54464;SDS011;40374;49.480;20.016;2023-05-07T14:54:15;6.90;;;4.63;;
54464;SDS011;40374;49.480;20.016;2023-05-07T14:56:42;6.53;;;4.63;;
54464;SDS011;40374;49.480;20.016;2023-05-07T14:59:10;6.47;;;4.38;;
54464;SDS011;40374;49.480;20.016;2023-05-07T15:01:38;6.32;;;4.25;;
54464;SDS011;40374;49.480;20.016;2023-05-07T15:04:07;5.35;;;4.18;;
54464;SDS011;40374;49.480;20.016;2023-05-07T15:06:34;5.53;;;4.45;;
54464;SDS011;40374;49.480;20.016;2023-05-07T15:09:02;8.20;;;5.05;;
54464;SDS011;40374;49.480;20.016;2023-05-07T15:11:30;7.20;;;5.00;;
54464;SDS011;40374;49.480;20.016;2023-05-07T15:13:58;6.47;;;4.43;;
54464;SDS011;40374;49.480;20.016;2023-05-07T15:16:25;5.82;;;4.53;;
54464;SDS011;40374;49.480;20.016;2023-05-07T15:18:53;7.88;;;5.18;;
54464;SDS011;40374;49.480;20.016;2023-05-07T15:21:21;8.02;;;4.80;;